sensor_id;sensor_type;location;lat;lon;timestamp;temperature;humidity
51476;DHT22;37554;50.362;7.568;2023-11-21T00:00:55;16.00;67.10
51476;DHT22;37554;50.362;7.568;2023-11-21T00:03:20;16.00;67.10
51476;DHT22;37554;50.362;7.568;2023-11-21T00:05:48;15.90;67.00
51476;DHT22;37554;50.362;7.568;2023-11-21T00:08:14;15.90;67.00
51476;DHT22;37554;50.362;7.568;2023-11-21T00:10:40;15.90;67.00
51476;DHT22;37554;50.362;7.568;2023-11-21T00:13:05;16.00;67.00
51476;DHT22;37554;50.362;7.568;2023-11-21T00:15:31;15.90;66.90
51476;DHT22;37554;50.362;7.568;2023-11-21T00:17:57;15.90;66.90
51476;DHT22;37554;50.362;7.568;2023-11-21T00:20:22;15.90;66.90
51476;DHT22;37554;50.362;7.568;2023-11-21T00:22:48;15.90;67.00
51476;DHT22;37554;50.362;7.568;2023-11-21T00:25:13;15.90;66.90
51476;DHT22;37554;50.362;7.568;2023-11-21T00:27:41;15.90;66.90
51476;DHT22;37554;50.362;7.568;2023-11-21T00:30:07;15.90;66.90
51476;DHT22;37554;50.362;7.568;2023-11-21T00:32:37;15.90;66.90
51476;DHT22;37554;50.362;7.568;2023-11-21T00:35:03;15.90;66.90
51476;DHT22;37554;50.362;7.568;2023-11-21T00:37:28;15.90;66.80
51476;DHT22;37554;50.362;7.568;2023-11-21T00:39:54;15.80;66.80
51476;DHT22;37554;50.362;7.568;2023-11-21T00:42:20;15.80;66.80
51476;DHT22;37554;50.362;7.568;2023-11-21T00:44:46;15.80;66.80
51476;DHT22;37554;50.362;7.568;2023-11-21T00:47:12;15.80;66.80
51476;DHT22;37554;50.362;7.568;2023-11-21T00:49:38;15.80;66.90
51476;DHT22;37554;50.362;7.568;2023-11-21T00:52:04;15.80;66.90
51476;DHT22;37554;50.362;7.568;2023-11-21T00:54:30;15.80;66.90
51476;DHT22;37554;50.362;7.568;2023-11-21T00:56:56;15.80;67.00
51476;DHT22;37554;50.362;7.568;2023-11-21T00:59:22;15.80;66.90
51476;DHT22;37554;50.362;7.568;2023-11-21T01:01:48;15.80;67.00
51476;DHT22;37554;50.362;7.568;2023-11-21T01:04:14;15.80;67.00
51476;DHT22;37554;50.362;7.568;2023-11-21T01:06:39;15.80;67.00
51476;DHT22;37554;50.362;7.568;2023-11-21T01:09:05;15.80;67.00
51476;DHT22;37554;50.362;7.568;2023-11-21T01:11:34;15.80;67.00
51476;DHT22;37554;50.362;7.568;2023-11-21T01:14:03;15.80;67.10
51476;DHT22;37554;50.362;7.568;2023-11-21T01:16:29;15.80;67.20
51476;DHT22;37554;50.362;7.568;2023-11-21T01:18:55;15.80;67.10
51476;DHT22;37554;50.362;7.568;2023-11-21T01:21:21;15.70;67.10
51476;DHT22;37554;50.362;7.568;2023-11-21T01:23:47;15.70;67.10
51476;DHT22;37554;50.362;7.568;2023-11-21T01:26:12;15.70;67.10
51476;DHT22;37554;50.362;7.568;2023-11-21T01:28:38;15.70;67.10
51476;DHT22;37554;50.362;7.568;2023-11-21T01:31:04;15.70;67.20
51476;DHT22;37554;50.362;7.568;2023-11-21T01:33:30;15.70;67.20
51476;DHT22;37554;50.362;7.568;2023-11-21T01:35:55;15.70;67.20
51476;DHT22;37554;50.362;7.568;2023-11-21T01:38:21;15.70;67.20
51476;DHT22;37554;50.362;7.568;2023-11-21T01:40:47;15.70;67.30
51476;DHT22;37554;50.362;7.568;2023-11-21T01:43:13;15.70;67.30
51476;DHT22;37554;50.362;7.568;2023-11-21T01:45:39;15.70;67.40
51476;DHT22;37554;50.362;7.568;2023-11-21T01:48:04;15.70;67.40
51476;DHT22;37554;50.362;7.568;2023-11-21T01:50:32;15.70;67.40
51476;DHT22;37554;50.362;7.568;2023-11-21T01:52:59;15.70;67.50
51476;DHT22;37554;50.362;7.568;2023-11-21T01:55:25;15.70;67.50
51476;DHT22;37554;50.362;7.568;2023-11-21T01:57:53;15.70;67.40
51476;DHT22;37554;50.362;7.568;2023-11-21T02:00:19;15.70;67.50
51476;DHT22;37554;50.362;7.568;2023-11-21T02:02:45;15.70;67.40
51476;DHT22;37554;50.362;7.568;2023-11-21T02:05:13;15.70;67.50
51476;DHT22;37554;50.362;7.568;2023-11-21T02:07:40;15.70;67.50
51476;DHT22;37554;50.362;7.568;2023-11-21T02:10:07;15.70;67.60
51476;DHT22;37554;50.362;7.568;2023-11-21T02:12:33;15.70;67.50
51476;DHT22;37554;50.362;7.568;2023-11-21T02:15:03;15.70;67.60
51476;DHT22;37554;50.362;7.568;2023-11-21T02:17:41;15.60;67.50
51476;DHT22;37554;50.362;7.568;2023-11-21T02:20:07;15.60;67.50
51476;DHT22;37554;50.362;7.568;2023-11-21T02:22:36;15.60;67.50
51476;DHT22;37554;50.362;7.568;2023-11-21T02:25:04;15.60;67.60
51476;DHT22;37554;50.362;7.568;2023-11-21T02:27:29;15.60;67.60
51476;DHT22;37554;50.362;7.568;2023-11-21T02:29:55;15.60;67.60
51476;DHT22;37554;50.362;7.568;2023-11-21T02:32:21;15.60;67.60
51476;DHT22;37554;50.362;7.568;2023-11-21T02:34:48;15.60;67.70
51476;DHT22;37554;50.362;7.568;2023-11-21T02:37:14;15.60;67.70
51476;DHT22;37554;50.362;7.568;2023-11-21T02:39:39;15.60;67.70
51476;DHT22;37554;50.362;7.568;2023-11-21T02:42:05;15.60;67.70
51476;DHT22;37554;50.362;7.568;2023-11-21T02:44:31;15.60;67.70
51476;DHT22;37554;50.362;7.568;2023-11-21T02:46:56;15.60;67.70
51476;DHT22;37554;50.362;7.568;2023-11-21T02:49:23;15.60;67.60
51476;DHT22;37554;50.362;7.568;2023-11-21T02:51:49;15.60;67.60
51476;DHT22;37554;50.362;7.568;2023-11-21T02:54:14;15.60;67.60
51476;DHT22;37554;50.362;7.568;2023-11-21T02:56:42;15.60;67.50
51476;DHT22;37554;50.362;7.568;2023-11-21T02:59:07;15.60;67.50
51476;DHT22;37554;50.362;7.568;2023-11-21T03:01:33;15.60;67.50
51476;DHT22;37554;50.362;7.568;2023-11-21T03:03:59;15.60;67.60
51476;DHT22;37554;50.362;7.568;2023-11-21T03:06:25;15.60;67.50
51476;DHT22;37554;50.362;7.568;2023-11-21T03:08:50;15.60;67.50
51476;DHT22;37554;50.362;7.568;2023-11-21T03:11:16;15.60;67.50
51476;DHT22;37554;50.362;7.568;2023-11-21T03:13:42;15.50;67.50
51476;DHT22;37554;50.362;7.568;2023-11-21T03:16:11;15.50;67.50
51476;DHT22;37554;50.362;7.568;2023-11-21T03:18:38;15.50;67.50
51476;DHT22;37554;50.362;7.568;2023-11-21T03:21:04;15.50;67.50
51476;DHT22;37554;50.362;7.568;2023-11-21T03:23:31;15.50;67.50
51476;DHT22;37554;50.362;7.568;2023-11-21T03:25:57;15.50;67.50
51476;DHT22;37554;50.362;7.568;2023-11-21T03:28:23;15.50;67.50
51476;DHT22;37554;50.362;7.568;2023-11-21T03:30:49;15.50;67.50
51476;DHT22;37554;50.362;7.568;2023-11-21T03:33:14;15.50;67.50
51476;DHT22;37554;50.362;7.568;2023-11-21T03:35:40;15.40;67.40
51476;DHT22;37554;50.362;7.568;2023-11-21T03:38:07;15.40;67.40
51476;DHT22;37554;50.362;7.568;2023-11-21T03:40:33;15.40;67.40
51476;DHT22;37554;50.362;7.568;2023-11-21T03:42:58;15.40;67.40
51476;DHT22;37554;50.362;7.568;2023-11-21T03:45:24;15.40;67.50
51476;DHT22;37554;50.362;7.568;2023-11-21T03:47:50;15.40;67.40
51476;DHT22;37554;50.362;7.568;2023-11-21T03:50:15;15.40;67.40
51476;DHT22;37554;50.362;7.568;2023-11-21T03:52:41;15.40;67.40
51476;DHT22;37554;50.362;7.568;2023-11-21T03:55:07;15.40;67.40
51476;DHT22;37554;50.362;7.568;2023-11-21T03:57:32;15.40;67.40
51476;DHT22;37554;50.362;7.568;2023-11-21T03:59:58;15.40;67.50
51476;DHT22;37554;50.362;7.568;2023-11-21T04:02:24;15.40;67.50
51476;DHT22;37554;50.362;7.568;2023-11-21T04:04:51;15.40;67.50
51476;DHT22;37554;50.362;7.568;2023-11-21T04:07:17;15.40;67.40
51476;DHT22;37554;50.362;7.568;2023-11-21T04:09:43;15.40;67.40
51476;DHT22;37554;50.362;7.568;2023-11-21T04:12:08;15.40;67.40
51476;DHT22;37554;50.362;7.568;2023-11-21T04:14:35;15.40;67.40
51476;DHT22;37554;50.362;7.568;2023-11-21T04:17:00;15.40;67.40
51476;DHT22;37554;50.362;7.568;2023-11-21T04:19:26;15.40;67.40
51476;DHT22;37554;50.362;7.568;2023-11-21T04:21:52;15.40;67.40
51476;DHT22;37554;50.362;7.568;2023-11-21T04:24:17;15.40;67.50
51476;DHT22;37554;50.362;7.568;2023-11-21T04:26:46;15.30;67.50
51476;DHT22;37554;50.362;7.568;2023-11-21T04:29:12;15.30;67.40
51476;DHT22;37554;50.362;7.568;2023-11-21T04:31:37;15.30;67.50
51476;DHT22;37554;50.362;7.568;2023-11-21T04:34:03;15.40;67.50
51476;DHT22;37554;50.362;7.568;2023-11-21T04:36:30;15.30;67.40
51476;DHT22;37554;50.362;7.568;2023-11-21T04:38:56;15.30;67.40
51476;DHT22;37554;50.362;7.568;2023-11-21T04:41:22;15.30;67.40
51476;DHT22;37554;50.362;7.568;2023-11-21T04:43:47;15.30;67.50
51476;DHT22;37554;50.362;7.568;2023-11-21T04:46:13;15.30;67.60
51476;DHT22;37554;50.362;7.568;2023-11-21T04:48:39;15.30;67.60
51476;DHT22;37554;50.362;7.568;2023-11-21T04:51:04;15.30;67.60
51476;DHT22;37554;50.362;7.568;2023-11-21T04:53:30;15.30;67.60
51476;DHT22;37554;50.362;7.568;2023-11-21T04:55:56;15.30;67.60
51476;DHT22;37554;50.362;7.568;2023-11-21T04:58:21;15.30;67.60
51476;DHT22;37554;50.362;7.568;2023-11-21T05:00:47;15.30;67.60
51476;DHT22;37554;50.362;7.568;2023-11-21T05:03:12;15.30;67.60
51476;DHT22;37554;50.362;7.568;2023-11-21T05:05:38;15.30;67.60
51476;DHT22;37554;50.362;7.568;2023-11-21T05:08:03;15.30;67.60
51476;DHT22;37554;50.362;7.568;2023-11-21T05:10:30;15.30;67.60
51476;DHT22;37554;50.362;7.568;2023-11-21T05:12:56;15.30;67.70
51476;DHT22;37554;50.362;7.568;2023-11-21T05:15:22;15.20;67.70
51476;DHT22;37554;50.362;7.568;2023-11-21T05:17:48;15.20;67.70
51476;DHT22;37554;50.362;7.568;2023-11-21T05:20:15;15.20;67.70
51476;DHT22;37554;50.362;7.568;2023-11-21T05:22:47;15.20;67.70
51476;DHT22;37554;50.362;7.568;2023-11-21T05:25:13;15.20;67.80
51476;DHT22;37554;50.362;7.568;2023-11-21T05:27:39;15.20;67.80
51476;DHT22;37554;50.362;7.568;2023-11-21T05:30:06;15.20;67.80
51476;DHT22;37554;50.362;7.568;2023-11-21T05:32:35;15.20;67.80
51476;DHT22;37554;50.362;7.568;2023-11-21T05:35:00;15.20;67.90
51476;DHT22;37554;50.362;7.568;2023-11-21T05:37:26;15.20;67.90
51476;DHT22;37554;50.362;7.568;2023-11-21T05:39:53;15.20;67.90
51476;DHT22;37554;50.362;7.568;2023-11-21T05:42:22;15.20;67.90
51476;DHT22;37554;50.362;7.568;2023-11-21T05:44:47;15.20;68.60
51476;DHT22;37554;50.362;7.568;2023-11-21T05:47:13;15.20;67.90
51476;DHT22;37554;50.362;7.568;2023-11-21T05:49:39;15.20;67.90
51476;DHT22;37554;50.362;7.568;2023-11-21T05:52:05;15.20;67.90
51476;DHT22;37554;50.362;7.568;2023-11-21T05:54:31;15.20;67.90
51476;DHT22;37554;50.362;7.568;2023-11-21T05:56:56;15.20;67.80
51476;DHT22;37554;50.362;7.568;2023-11-21T05:59:23;15.20;67.90
51476;DHT22;37554;50.362;7.568;2023-11-21T06:01:48;15.20;67.90
51476;DHT22;37554;50.362;7.568;2023-11-21T06:04:14;15.10;67.90
51476;DHT22;37554;50.362;7.568;2023-11-21T06:06:39;15.10;67.90
51476;DHT22;37554;50.362;7.568;2023-11-21T06:09:05;15.10;67.90
51476;DHT22;37554;50.362;7.568;2023-11-21T06:11:33;15.10;67.90
51476;DHT22;37554;50.362;7.568;2023-11-21T06:14:03;15.10;67.90
51476;DHT22;37554;50.362;7.568;2023-11-21T06:16:28;15.10;67.90
51476;DHT22;37554;50.362;7.568;2023-11-21T06:18:54;15.10;67.90
51476;DHT22;37554;50.362;7.568;2023-11-21T06:21:20;15.10;67.90
51476;DHT22;37554;50.362;7.568;2023-11-21T06:23:45;15.10;68.00
51476;DHT22;37554;50.362;7.568;2023-11-21T06:26:11;15.20;68.00
51476;DHT22;37554;50.362;7.568;2023-11-21T06:28:38;15.10;68.00
51476;DHT22;37554;50.362;7.568;2023-11-21T06:31:04;15.10;68.00
51476;DHT22;37554;50.362;7.568;2023-11-21T06:33:33;15.10;68.00
51476;DHT22;37554;50.362;7.568;2023-11-21T06:35:59;15.10;68.00
51476;DHT22;37554;50.362;7.568;2023-11-21T06:38:28;15.10;68.00
51476;DHT22;37554;50.362;7.568;2023-11-21T06:40:55;15.10;67.80
51476;DHT22;37554;50.362;7.568;2023-11-21T06:43:21;14.90;67.60
51476;DHT22;37554;50.362;7.568;2023-11-21T06:45:47;14.60;68.00
51476;DHT22;37554;50.362;7.568;2023-11-21T06:48:13;14.50;68.50
51476;DHT22;37554;50.362;7.568;2023-11-21T06:50:38;14.40;68.60
51476;DHT22;37554;50.362;7.568;2023-11-21T06:53:04;14.30;68.80
51476;DHT22;37554;50.362;7.568;2023-11-21T06:55:32;14.20;68.90
51476;DHT22;37554;50.362;7.568;2023-11-21T06:57:58;14.30;69.30
51476;DHT22;37554;50.362;7.568;2023-11-21T07:00:25;14.40;69.80
51476;DHT22;37554;50.362;7.568;2023-11-21T07:02:51;14.50;69.10
51476;DHT22;37554;50.362;7.568;2023-11-21T07:05:16;14.70;69.00
51476;DHT22;37554;50.362;7.568;2023-11-21T07:07:46;14.80;68.90
51476;DHT22;37554;50.362;7.568;2023-11-21T07:10:11;14.90;68.70
51476;DHT22;37554;50.362;7.568;2023-11-21T07:12:38;14.90;68.60
51476;DHT22;37554;50.362;7.568;2023-11-21T07:15:04;15.00;68.50
51476;DHT22;37554;50.362;7.568;2023-11-21T07:17:32;15.00;68.40
51476;DHT22;37554;50.362;7.568;2023-11-21T07:19:58;15.10;68.40
51476;DHT22;37554;50.362;7.568;2023-11-21T07:22:23;15.10;68.30
51476;DHT22;37554;50.362;7.568;2023-11-21T07:24:53;15.10;68.20
51476;DHT22;37554;50.362;7.568;2023-11-21T07:27:19;15.10;68.20
51476;DHT22;37554;50.362;7.568;2023-11-21T07:29:44;15.10;68.20
51476;DHT22;37554;50.362;7.568;2023-11-21T07:32:10;15.10;68.10
51476;DHT22;37554;50.362;7.568;2023-11-21T07:34:37;15.10;68.10
51476;DHT22;37554;50.362;7.568;2023-11-21T07:37:03;15.10;68.10
51476;DHT22;37554;50.362;7.568;2023-11-21T07:39:29;15.10;68.10
51476;DHT22;37554;50.362;7.568;2023-11-21T07:41:55;15.10;68.10
51476;DHT22;37554;50.362;7.568;2023-11-21T07:44:23;15.10;68.20
51476;DHT22;37554;50.362;7.568;2023-11-21T07:46:49;15.20;68.20
51476;DHT22;37554;50.362;7.568;2023-11-21T07:49:17;15.20;68.20
51476;DHT22;37554;50.362;7.568;2023-11-21T07:51:45;15.20;68.10
51476;DHT22;37554;50.362;7.568;2023-11-21T07:54:11;15.20;68.10
51476;DHT22;37554;50.362;7.568;2023-11-21T07:56:37;15.20;68.10
51476;DHT22;37554;50.362;7.568;2023-11-21T07:59:03;15.20;68.10
51476;DHT22;37554;50.362;7.568;2023-11-21T08:01:30;15.20;68.00
51476;DHT22;37554;50.362;7.568;2023-11-21T08:03:57;15.20;68.00
51476;DHT22;37554;50.362;7.568;2023-11-21T08:06:27;15.20;68.00
51476;DHT22;37554;50.362;7.568;2023-11-21T08:08:52;15.30;68.00
51476;DHT22;37554;50.362;7.568;2023-11-21T08:11:18;15.30;68.00
51476;DHT22;37554;50.362;7.568;2023-11-21T08:13:44;15.30;67.90
51476;DHT22;37554;50.362;7.568;2023-11-21T08:16:11;15.30;67.90
51476;DHT22;37554;50.362;7.568;2023-11-21T08:18:37;15.30;67.90
51476;DHT22;37554;50.362;7.568;2023-11-21T08:21:03;15.30;67.80
51476;DHT22;37554;50.362;7.568;2023-11-21T08:23:30;15.30;67.80
51476;DHT22;37554;50.362;7.568;2023-11-21T08:25:55;15.30;67.80
51476;DHT22;37554;50.362;7.568;2023-11-21T08:28:21;15.30;67.70
51476;DHT22;37554;50.362;7.568;2023-11-21T08:30:51;15.30;67.70
51476;DHT22;37554;50.362;7.568;2023-11-21T08:33:17;15.30;67.70
51476;DHT22;37554;50.362;7.568;2023-11-21T08:35:46;15.40;67.80
51476;DHT22;37554;50.362;7.568;2023-11-21T08:38:12;15.40;67.70
51476;DHT22;37554;50.362;7.568;2023-11-21T08:40:38;15.40;67.70
51476;DHT22;37554;50.362;7.568;2023-11-21T08:43:04;15.40;67.70
51476;DHT22;37554;50.362;7.568;2023-11-21T08:45:33;15.40;67.70
51476;DHT22;37554;50.362;7.568;2023-11-21T08:48:02;15.50;68.00
51476;DHT22;37554;50.362;7.568;2023-11-21T08:50:28;15.50;68.10
51476;DHT22;37554;50.362;7.568;2023-11-21T08:52:54;15.50;68.10
51476;DHT22;37554;50.362;7.568;2023-11-21T08:55:20;15.50;68.10
51476;DHT22;37554;50.362;7.568;2023-11-21T08:57:45;15.60;68.10
51476;DHT22;37554;50.362;7.568;2023-11-21T09:00:14;15.60;68.10
51476;DHT22;37554;50.362;7.568;2023-11-21T09:02:41;15.60;68.10
51476;DHT22;37554;50.362;7.568;2023-11-21T09:05:10;15.60;68.10
51476;DHT22;37554;50.362;7.568;2023-11-21T09:07:37;15.60;68.10
51476;DHT22;37554;50.362;7.568;2023-11-21T09:10:04;15.60;68.20
51476;DHT22;37554;50.362;7.568;2023-11-21T09:12:33;15.60;68.20
51476;DHT22;37554;50.362;7.568;2023-11-21T09:15:04;15.70;68.40
51476;DHT22;37554;50.362;7.568;2023-11-21T09:17:31;15.70;68.40
51476;DHT22;37554;50.362;7.568;2023-11-21T09:19:57;15.70;68.40
51476;DHT22;37554;50.362;7.568;2023-11-21T09:22:22;15.70;68.30
51476;DHT22;37554;50.362;7.568;2023-11-21T09:24:50;15.80;68.30
51476;DHT22;37554;50.362;7.568;2023-11-21T09:27:16;15.90;68.30
51476;DHT22;37554;50.362;7.568;2023-11-21T09:29:42;15.90;68.20
51476;DHT22;37554;50.362;7.568;2023-11-21T09:32:08;16.00;68.20
51476;DHT22;37554;50.362;7.568;2023-11-21T09:34:38;16.00;68.10
51476;DHT22;37554;50.362;7.568;2023-11-21T09:37:04;16.10;68.20
51476;DHT22;37554;50.362;7.568;2023-11-21T09:39:32;16.10;68.30
51476;DHT22;37554;50.362;7.568;2023-11-21T09:42:13;16.10;68.20
51476;DHT22;37554;50.362;7.568;2023-11-21T09:47:15;16.10;68.40
51476;DHT22;37554;50.362;7.568;2023-11-21T09:49:47;16.20;68.30
51476;DHT22;37554;50.362;7.568;2023-11-21T09:52:18;16.20;68.30
51476;DHT22;37554;50.362;7.568;2023-11-21T09:54:48;16.20;68.30
51476;DHT22;37554;50.362;7.568;2023-11-21T09:57:15;16.20;68.40
51476;DHT22;37554;50.362;7.568;2023-11-21T09:59:41;16.10;68.40
51476;DHT22;37554;50.362;7.568;2023-11-21T10:02:08;16.20;68.50
51476;DHT22;37554;50.362;7.568;2023-11-21T10:04:38;16.20;68.50
51476;DHT22;37554;50.362;7.568;2023-11-21T10:07:04;16.20;68.50
51476;DHT22;37554;50.362;7.568;2023-11-21T10:09:36;16.30;68.50
51476;DHT22;37554;50.362;7.568;2023-11-21T10:12:03;16.40;68.30
51476;DHT22;37554;50.362;7.568;2023-11-21T10:14:35;16.50;68.00
51476;DHT22;37554;50.362;7.568;2023-11-21T10:17:02;16.50;67.60
51476;DHT22;37554;50.362;7.568;2023-11-21T10:19:29;16.60;67.60
51476;DHT22;37554;50.362;7.568;2023-11-21T10:21:55;16.60;67.70
51476;DHT22;37554;50.362;7.568;2023-11-21T10:24:23;16.60;67.60
51476;DHT22;37554;50.362;7.568;2023-11-21T10:26:48;16.60;67.70
51476;DHT22;37554;50.362;7.568;2023-11-21T10:29:16;16.60;67.80
51476;DHT22;37554;50.362;7.568;2023-11-21T10:31:51;16.60;67.80
51476;DHT22;37554;50.362;7.568;2023-11-21T10:34:20;16.50;68.00
51476;DHT22;37554;50.362;7.568;2023-11-21T10:36:47;16.50;68.00
51476;DHT22;37554;50.362;7.568;2023-11-21T10:39:17;16.50;68.20
51476;DHT22;37554;50.362;7.568;2023-11-21T10:41:44;16.50;68.40
51476;DHT22;37554;50.362;7.568;2023-11-21T10:44:17;16.50;68.40
51476;DHT22;37554;50.362;7.568;2023-11-21T10:46:53;16.50;68.40
51476;DHT22;37554;50.362;7.568;2023-11-21T10:49:25;16.50;68.40
51476;DHT22;37554;50.362;7.568;2023-11-21T10:51:55;16.50;68.30
51476;DHT22;37554;50.362;7.568;2023-11-21T10:54:22;16.50;68.20
51476;DHT22;37554;50.362;7.568;2023-11-21T10:56:49;16.60;68.40
51476;DHT22;37554;50.362;7.568;2023-11-21T10:59:17;16.60;68.30
51476;DHT22;37554;50.362;7.568;2023-11-21T11:01:45;16.60;68.40
51476;DHT22;37554;50.362;7.568;2023-11-21T11:04:12;16.50;68.30
51476;DHT22;37554;50.362;7.568;2023-11-21T11:06:41;16.60;68.40
51476;DHT22;37554;50.362;7.568;2023-11-21T11:09:09;16.60;68.40
51476;DHT22;37554;50.362;7.568;2023-11-21T11:11:41;16.60;68.30
51476;DHT22;37554;50.362;7.568;2023-11-21T11:14:13;16.60;68.20
51476;DHT22;37554;50.362;7.568;2023-11-21T11:16:40;16.70;68.10
51476;DHT22;37554;50.362;7.568;2023-11-21T11:19:09;16.70;68.10
51476;DHT22;37554;50.362;7.568;2023-11-21T11:22:03;16.70;68.00
51476;DHT22;37554;50.362;7.568;2023-11-21T11:24:44;16.70;67.90
51476;DHT22;37554;50.362;7.568;2023-11-21T11:36:00;16.70;67.90
51476;DHT22;37554;50.362;7.568;2023-11-21T11:38:31;16.70;68.10
51476;DHT22;37554;50.362;7.568;2023-11-21T11:41:01;16.70;68.10
51476;DHT22;37554;50.362;7.568;2023-11-21T11:43:28;16.70;68.10
51476;DHT22;37554;50.362;7.568;2023-11-21T11:45:58;16.70;68.10
51476;DHT22;37554;50.362;7.568;2023-11-21T11:48:29;16.70;68.10
51476;DHT22;37554;50.362;7.568;2023-11-21T11:53:36;16.70;68.10
51476;DHT22;37554;50.362;7.568;2023-11-21T11:56:25;16.70;68.10
51476;DHT22;37554;50.362;7.568;2023-11-21T11:58:56;16.80;68.20
51476;DHT22;37554;50.362;7.568;2023-11-21T12:01:24;16.70;68.10
51476;DHT22;37554;50.362;7.568;2023-11-21T12:06:42;16.80;68.00
51476;DHT22;37554;50.362;7.568;2023-11-21T12:09:21;16.80;67.90
51476;DHT22;37554;50.362;7.568;2023-11-21T12:11:47;16.80;68.10
51476;DHT22;37554;50.362;7.568;2023-11-21T12:14:16;16.80;68.00
51476;DHT22;37554;50.362;7.568;2023-11-21T12:16:43;16.80;67.90
51476;DHT22;37554;50.362;7.568;2023-11-21T12:19:09;16.80;68.00
51476;DHT22;37554;50.362;7.568;2023-11-21T12:21:36;16.80;67.90
51476;DHT22;37554;50.362;7.568;2023-11-21T12:24:02;16.80;67.90
51476;DHT22;37554;50.362;7.568;2023-11-21T12:26:28;16.70;67.80
51476;DHT22;37554;50.362;7.568;2023-11-21T12:28:54;16.70;67.80
51476;DHT22;37554;50.362;7.568;2023-11-21T12:31:24;16.70;67.90
51476;DHT22;37554;50.362;7.568;2023-11-21T12:33:50;16.80;68.00
51476;DHT22;37554;50.362;7.568;2023-11-21T12:36:16;16.80;68.10
51476;DHT22;37554;50.362;7.568;2023-11-21T12:38:42;16.70;67.90
51476;DHT22;37554;50.362;7.568;2023-11-21T12:41:09;16.80;68.20
51476;DHT22;37554;50.362;7.568;2023-11-21T12:43:35;16.80;68.20
51476;DHT22;37554;50.362;7.568;2023-11-21T12:46:08;16.80;68.20
51476;DHT22;37554;50.362;7.568;2023-11-21T12:48:39;16.80;68.20
51476;DHT22;37554;50.362;7.568;2023-11-21T12:51:08;16.90;68.00
51476;DHT22;37554;50.362;7.568;2023-11-21T12:53:35;17.00;67.80
51476;DHT22;37554;50.362;7.568;2023-11-21T12:56:05;17.10;67.50
51476;DHT22;37554;50.362;7.568;2023-11-21T12:58:31;17.20;67.30
51476;DHT22;37554;50.362;7.568;2023-11-21T13:00:59;17.10;67.20
51476;DHT22;37554;50.362;7.568;2023-11-21T13:03:25;17.10;67.10
51476;DHT22;37554;50.362;7.568;2023-11-21T13:05:53;17.00;67.10
51476;DHT22;37554;50.362;7.568;2023-11-21T13:08:21;17.00;67.10
51476;DHT22;37554;50.362;7.568;2023-11-21T13:10:52;17.00;67.10
51476;DHT22;37554;50.362;7.568;2023-11-21T13:13:19;17.00;67.20
51476;DHT22;37554;50.362;7.568;2023-11-21T13:15:51;17.00;67.30
51476;DHT22;37554;50.362;7.568;2023-11-21T13:18:18;17.00;67.40
51476;DHT22;37554;50.362;7.568;2023-11-21T13:20:44;16.90;67.30
51476;DHT22;37554;50.362;7.568;2023-11-21T13:23:10;16.90;67.50
51476;DHT22;37554;50.362;7.568;2023-11-21T13:25:42;16.90;66.90
51476;DHT22;37554;50.362;7.568;2023-11-21T13:28:08;16.70;65.00
51476;DHT22;37554;50.362;7.568;2023-11-21T13:30:35;16.40;64.40
51476;DHT22;37554;50.362;7.568;2023-11-21T13:33:05;16.20;64.80
51476;DHT22;37554;50.362;7.568;2023-11-21T13:35:37;16.00;64.90
51476;DHT22;37554;50.362;7.568;2023-11-21T13:38:17;15.90;64.80
51476;DHT22;37554;50.362;7.568;2023-11-21T13:40:48;15.80;65.00
51476;DHT22;37554;50.362;7.568;2023-11-21T13:43:19;15.80;65.40
51476;DHT22;37554;50.362;7.568;2023-11-21T13:45:47;15.90;65.40
51476;DHT22;37554;50.362;7.568;2023-11-21T13:48:15;16.10;65.40
51476;DHT22;37554;50.362;7.568;2023-11-21T13:50:45;16.20;65.30
51476;DHT22;37554;50.362;7.568;2023-11-21T13:53:21;16.20;65.30
51476;DHT22;37554;50.362;7.568;2023-11-21T13:55:52;16.30;65.40
51476;DHT22;37554;50.362;7.568;2023-11-21T13:58:21;16.40;65.40
51476;DHT22;37554;50.362;7.568;2023-11-21T14:01:12;16.40;65.40
51476;DHT22;37554;50.362;7.568;2023-11-21T14:04:02;16.50;65.40
51476;DHT22;37554;50.362;7.568;2023-11-21T14:06:42;16.50;65.40
51476;DHT22;37554;50.362;7.568;2023-11-21T14:09:23;16.50;65.50
51476;DHT22;37554;50.362;7.568;2023-11-21T14:11:56;16.50;65.50
51476;DHT22;37554;50.362;7.568;2023-11-21T14:14:24;16.50;65.50
51476;DHT22;37554;50.362;7.568;2023-11-21T14:16:51;16.50;65.60
51476;DHT22;37554;50.362;7.568;2023-11-21T14:19:17;16.50;65.70
51476;DHT22;37554;50.362;7.568;2023-11-21T14:21:47;16.50;65.80
51476;DHT22;37554;50.362;7.568;2023-11-21T14:24:14;16.50;65.80
51476;DHT22;37554;50.362;7.568;2023-11-21T14:26:43;16.50;65.90
51476;DHT22;37554;50.362;7.568;2023-11-21T14:29:12;16.50;66.00
51476;DHT22;37554;50.362;7.568;2023-11-21T14:31:40;16.50;66.60
51476;DHT22;37554;50.362;7.568;2023-11-21T14:34:06;16.50;66.00
51476;DHT22;37554;50.362;7.568;2023-11-21T14:36:33;16.50;66.00
51476;DHT22;37554;50.362;7.568;2023-11-21T14:38:59;16.50;66.10
51476;DHT22;37554;50.362;7.568;2023-11-21T14:41:27;16.40;66.80
51476;DHT22;37554;50.362;7.568;2023-11-21T14:43:54;16.40;66.10
51476;DHT22;37554;50.362;7.568;2023-11-21T14:46:20;16.40;66.80
51476;DHT22;37554;50.362;7.568;2023-11-21T14:48:46;16.40;66.20
51476;DHT22;37554;50.362;7.568;2023-11-21T14:51:25;16.40;66.40
51476;DHT22;37554;50.362;7.568;2023-11-21T14:53:55;16.40;66.40
51476;DHT22;37554;50.362;7.568;2023-11-21T14:56:25;16.40;66.40
51476;DHT22;37554;50.362;7.568;2023-11-21T14:58:58;16.40;66.40
51476;DHT22;37554;50.362;7.568;2023-11-21T15:01:34;16.40;66.40
51476;DHT22;37554;50.362;7.568;2023-11-21T15:04:18;16.30;66.30
51476;DHT22;37554;50.362;7.568;2023-11-21T15:07:07;16.30;66.70
51476;DHT22;37554;50.362;7.568;2023-11-21T15:09:33;16.30;66.30
51476;DHT22;37554;50.362;7.568;2023-11-21T15:11:59;16.30;66.40
51476;DHT22;37554;50.362;7.568;2023-11-21T15:14:50;16.30;66.40
51476;DHT22;37554;50.362;7.568;2023-11-21T15:17:19;16.20;66.30
51476;DHT22;37554;50.362;7.568;2023-11-21T15:19:56;16.30;66.40
51476;DHT22;37554;50.362;7.568;2023-11-21T15:22:22;16.20;66.40
51476;DHT22;37554;50.362;7.568;2023-11-21T15:24:48;16.20;66.50
51476;DHT22;37554;50.362;7.568;2023-11-21T15:27:16;16.20;66.60
51476;DHT22;37554;50.362;7.568;2023-11-21T15:29:43;16.20;66.60
51476;DHT22;37554;50.362;7.568;2023-11-21T15:32:09;16.20;66.70
51476;DHT22;37554;50.362;7.568;2023-11-21T15:34:36;16.10;66.60
51476;DHT22;37554;50.362;7.568;2023-11-21T15:37:03;16.10;67.30
51476;DHT22;37554;50.362;7.568;2023-11-21T15:39:30;16.10;66.80
51476;DHT22;37554;50.362;7.568;2023-11-21T15:41:56;16.10;66.90
51476;DHT22;37554;50.362;7.568;2023-11-21T15:44:23;16.10;66.90
51476;DHT22;37554;50.362;7.568;2023-11-21T15:46:51;16.10;67.00
51476;DHT22;37554;50.362;7.568;2023-11-21T15:49:17;16.10;67.10